Time,TemperatureF,DewpointF,PressureIn,WindDirection,WindDirectionDegrees,WindSpeedMPH,WindSpeedGustMPH,Humidity,HourlyPrecipIn,Conditions,Clouds,dailyrainin,SoftwareType,DateUTC
2013-08-05 00:00:00,71.0,67.6,30.00,NW,306,0.0,0.0,89,0.00,,FEW120,0.00,VWS V14.01,2013-08-05 04:00:00,
2013-08-05 00:01:00,71.0,67.6,29.99,NW,306,0.0,0.0,89,0.00,,FEW120,0.00,VWS V14.01,2013-08-05 04:01:00,
2013-08-05 00:02:00,71.0,67.9,30.00,NW,306,0.0,0.0,90,0.00,,FEW120,0.00,VWS V14.01,2013-08-05 04:02:00,
2013-08-05 00:07:00,71.0,67.9,30.00,NW,306,0.0,0.0,90,0.00,,FEW120,0.00,VWS V14.01,2013-08-05 04:07:00,
2013-08-05 00:12:00,71.0,67.9,30.00,NW,306,0.0,0.0,90,0.00,,FEW120,0.00,VWS V14.01,2013-08-05 04:12:00,
2013-08-05 00:17:00,70.5,67.8,30.00,NW,306,0.0,0.0,91,0.00,,FEW120,0.00,VWS V14.01,2013-08-05 04:17:00,
2013-08-05 00:22:00,70.5,68.1,29.99,NW,306,0.0,0.0,92,0.00,,FEW120,0.00,VWS V14.01,2013-08-05 04:22:00,
2013-08-05 00:27:00,70.5,68.1,29.99,NW,306,0.0,0.0,92,0.00,,FEW120,0.00,VWS V14.01,2013-08-05 04:27:00,
2013-08-05 00:32:00,70.5,68.1,29.99,NW,306,0.0,0.0,92,0.00,,FEW120,0.00,VWS V14.01,2013-08-05 04:32:00,
2013-08-05 00:37:00,70.2,67.4,30.00,NW,307,0.0,0.0,91,0.00,,FEW120,0.00,VWS V14.01,2013-08-05 04:37:00,
2013-08-05 00:42:00,70.0,67.6,30.00,NW,306,0.0,0.0,92,0.00,,FEW120,0.00,VWS V14.01,2013-08-05 04:42:00,
2013-08-05 00:47:00,69.9,67.5,29.99,NW,306,0.0,0.0,92,0.00,,FEW120,0.00,VWS V14.01,2013-08-05 04:47:00,
2013-08-05 00:52:00,69.7,67.3,29.99,NW,306,0.0,0.0,92,0.00,,FEW120,0.00,VWS V14.01,2013-08-05 04:52:00,
2013-08-05 00:57:00,69.6,67.5,29.99,NW,306,0.0,0.0,93,0.00,,FEW120,0.00,VWS V14.01,2013-08-05 04:57:00,
2013-08-05 01:02:00,69.5,67.4,30.00,NW,307,0.0,0.0,93,0.00,,FEW120,0.00,VWS V14.01,2013-08-05 05:02:00,
2013-08-05 01:07:00,69.3,67.2,30.00,NW,306,0.0,0.0,93,0.00,,FEW120,0.00,VWS V14.01,2013-08-05 05:07:00,
2013-08-05 01:12:00,69.2,67.4,29.99,NW,306,0.0,0.0,94,0.00,,FEW120,0.00,VWS V14.01,2013-08-05 05:12:00,
2013-08-05 01:17:00,69.1,67.3,29.99,NW,306,0.0,0.0,94,0.00,,FEW120,0.00,VWS V14.01,2013-08-05 05:17:00,
2013-08-05 01:22:00,68.9,67.1,29.99,NW,306,0.0,0.0,94,0.00,,FEW120,0.00,VWS V14.01,2013-08-05 05:22:00,
2013-08-05 01:27:00,68.7,66.9,29.99,NW,307,0.0,0.0,94,0.00,,FEW120,0.00,VWS V14.01,2013-08-05 05:27:00,
2013-08-05 01:32:00,68.5,66.7,29.99,NW,306,0.0,0.0,94,0.00,,FEW120,0.00,VWS V14.01,2013-08-05 05:32:00,
2013-08-05 01:37:00,68.4,66.6,29.98,NW,307,0.0,0.0,94,0.00,,FEW120,0.00,VWS V14.01,2013-08-05 05:37:00,
2013-08-05 01:42:00,68.3,66.5,29.98,NW,307,0.0,0.0,94,0.00,,FEW120,0.00,VWS V14.01,2013-08-05 05:42:00,
2013-08-05 01:47:00,68.1,66.3,29.98,NW,307,0.0,0.0,94,0.00,,FEW120,0.00,VWS V14.01,2013-08-05 05:47:00,
2013-08-05 01:52:00,68.1,66.6,29.98,NW,306,0.0,0.0,95,0.00,,FEW120,0.00,VWS V14.01,2013-08-05 05:52:00,
2013-08-05 01:57:00,68.0,66.2,29.98,NW,307,0.0,0.0,94,0.00,,FEW120,0.00,VWS V14.01,2013-08-05 05:57:00,
2013-08-05 02:02:00,67.8,66.0,29.98,NW,306,0.0,0.0,94,0.00,,FEW120,0.00,VWS V14.01,2013-08-05 06:02:00,
2013-08-05 02:06:00,67.7,65.9,29.98,NW,307,0.0,0.0,94,0.00,,FEW120,0.00,VWS V14.01,2013-08-05 06:06:00,
2013-08-05 02:12:00,67.6,66.1,29.98,NW,306,0.0,0.0,95,0.00,,FEW120,0.00,VWS V14.01,2013-08-05 06:12:00,
2013-08-05 02:17:00,67.6,66.1,29.97,NW,306,0.0,0.0,95,0.00,,FEW120,0.00,VWS V14.01,2013-08-05 06:17:00,
2013-08-05 02:22:00,67.6,65.8,29.97,NW,306,0.0,0.0,94,0.00,,FEW120,0.00,VWS V14.01,2013-08-05 06:22:00,
2013-08-05 02:27:00,67.5,65.7,29.97,NW,307,0.0,0.0,94,0.00,,FEW120,0.00,VWS V14.01,2013-08-05 06:27:00,
2013-08-05 02:32:00,67.5,65.7,29.97,NW,307,0.0,0.0,94,0.00,,FEW120,0.00,VWS V14.01,2013-08-05 06:32:00,
2013-08-05 02:37:00,67.6,66.1,29.97,NW,306,0.0,0.0,95,0.00,,FEW120,0.00,VWS V14.01,2013-08-05 06:37:00,
2013-08-05 02:42:00,67.6,65.8,29.97,NW,306,0.0,0.0,94,0.00,,FEW120,0.00,VWS V14.01,2013-08-05 06:42:00,
2013-08-05 02:47:00,67.5,65.7,29.97,NW,307,0.0,0.0,94,0.00,,FEW120,0.00,VWS V14.01,2013-08-05 06:47:00,
2013-08-05 02:52:00,67.4,65.6,29.97,NW,307,0.0,0.0,94,0.00,,FEW120,0.00,VWS V14.01,2013-08-05 06:52:00,
2013-08-05 02:57:00,67.4,65.9,29.97,NW,306,0.0,0.0,95,0.00,,FEW120,0.00,VWS V14.01,2013-08-05 06:57:00,
2013-08-05 03:02:00,67.5,66.0,29.97,NW,307,0.0,0.0,95,0.00,,FEW120,0.00,VWS V14.01,2013-08-05 07:02:00,
2013-08-05 03:07:00,67.4,65.9,29.96,NW,306,0.0,0.0,95,0.00,,FEW120,0.00,VWS V14.01,2013-08-05 07:07:00,
2013-08-05 03:12:00,67.3,65.8,29.96,NW,306,0.0,0.0,95,0.00,,FEW120,0.00,VWS V14.01,2013-08-05 07:12:00,
2013-08-05 03:17:00,67.2,65.7,29.97,NW,306,0.0,0.0,95,0.00,,FEW120,0.00,VWS V14.01,2013-08-05 07:17:00,
2013-08-05 03:22:00,67.1,65.6,29.96,NW,307,0.0,0.0,95,0.00,,FEW120,0.00,VWS V14.01,2013-08-05 07:22:00,
2013-08-05 03:27:00,66.5,65.0,29.96,NW,307,0.0,0.0,95,0.00,,FEW120,0.00,VWS V14.01,2013-08-05 07:27:00,
2013-08-05 03:32:00,66.5,65.0,29.96,NW,307,0.0,0.0,95,0.00,,FEW120,0.00,VWS V14.01,2013-08-05 07:32:00,
2013-08-05 03:37:00,66.5,65.0,29.96,NW,307,0.0,0.0,95,0.00,,FEW120,0.00,VWS V14.01,2013-08-05 07:37:00,
2013-08-05 03:42:00,66.5,65.0,29.96,NW,307,0.0,0.0,95,0.00,,FEW120,0.00,VWS V14.01,2013-08-05 07:42:00,
2013-08-05 03:47:00,66.5,65.0,29.96,NW,307,0.0,0.0,95,0.00,,FEW120,0.00,VWS V14.01,2013-08-05 07:47:00,
2013-08-05 03:52:00,66.5,65.0,29.96,NW,307,0.0,0.0,95,0.00,,FEW120,0.00,VWS V14.01,2013-08-05 07:52:00,
2013-08-05 03:57:00,66.5,65.0,29.96,NW,307,0.0,0.0,95,0.00,,FEW120,0.00,VWS V14.01,2013-08-05 07:57:00,
2013-08-05 04:02:00,66.5,65.0,29.96,NW,307,0.0,0.0,95,0.00,,FEW120,0.00,VWS V14.01,2013-08-05 08:02:00,
2013-08-05 04:07:00,66.5,65.0,29.96,NW,307,0.0,0.0,95,0.00,,FEW120,0.00,VWS V14.01,2013-08-05 08:07:00,
2013-08-05 04:12:00,66.5,65.0,29.96,NW,307,0.0,0.0,95,0.00,,FEW120,0.00,VWS V14.01,2013-08-05 08:12:00,
2013-08-05 04:17:00,66.5,65.0,29.96,NW,307,0.0,0.0,95,0.00,,FEW120,0.00,VWS V14.01,2013-08-05 08:17:00,
2013-08-05 04:22:00,66.5,65.0,29.96,NW,307,0.0,0.0,95,0.00,,FEW120,0.00,VWS V14.01,2013-08-05 08:22:00,
2013-08-05 04:27:00,66.5,65.0,29.96,NW,307,0.0,0.0,95,0.00,,FEW120,0.00,VWS V14.01,2013-08-05 08:27:00,
2013-08-05 04:32:00,66.5,65.0,29.96,NW,307,0.0,0.0,95,0.00,,FEW120,0.00,VWS V14.01,2013-08-05 08:32:00,
2013-08-05 04:37:00,66.5,65.0,29.96,NW,307,0.0,0.0,95,0.00,,FEW120,0.00,VWS V14.01,2013-08-05 08:37:00,
2013-08-05 04:42:00,66.5,65.0,29.97,NW,307,0.0,0.0,95,0.00,,FEW120,0.00,VWS V14.01,2013-08-05 08:42:00,
2013-08-05 04:47:00,66.5,65.0,29.97,NW,307,0.0,0.0,95,0.00,,FEW120,0.00,VWS V14.01,2013-08-05 08:47:00,
2013-08-05 04:52:00,66.5,65.0,29.97,NW,307,0.0,0.0,95,0.00,,FEW120,0.00,VWS V14.01,2013-08-05 08:52:00,
2013-08-05 04:57:00,66.5,65.0,29.97,NW,307,0.0,0.0,95,0.00,,FEW120,0.00,VWS V14.01,2013-08-05 08:57:00,
2013-08-05 05:02:00,66.5,65.0,29.97,NW,307,0.0,0.0,95,0.00,,FEW120,0.00,VWS V14.01,2013-08-05 09:02:00,
2013-08-05 05:08:00,66.5,65.0,29.97,NW,307,0.0,0.0,95,0.00,,FEW120,0.00,VWS V14.01,2013-08-05 09:08:00,
2013-08-05 05:13:00,66.5,65.0,29.97,NW,307,0.0,0.0,95,0.00,,FEW120,0.00,VWS V14.01,2013-08-05 09:13:00,
2013-08-05 05:18:00,66.5,65.0,29.97,NW,307,0.0,0.0,95,0.00,,FEW120,0.00,VWS V14.01,2013-08-05 09:18:00,
2013-08-05 05:23:00,66.5,65.0,29.97,NW,307,0.0,0.0,95,0.00,,FEW120,0.00,VWS V14.01,2013-08-05 09:23:00,
2013-08-05 05:28:00,66.5,65.0,29.97,NW,307,0.0,0.0,95,0.00,,FEW120,0.00,VWS V14.01,2013-08-05 09:28:00,
2013-08-05 05:34:00,66.5,65.0,29.97,NW,307,0.0,0.0,95,0.00,,FEW120,0.00,VWS V14.01,2013-08-05 09:34:00,
2013-08-05 05:39:00,66.5,65.0,29.97,NW,307,0.0,0.0,95,0.00,,FEW120,0.00,VWS V14.01,2013-08-05 09:39:00,
2013-08-05 05:44:00,66.5,65.0,29.97,NW,307,0.0,0.0,95,0.00,,FEW120,0.00,VWS V14.01,2013-08-05 09:44:00,
2013-08-05 05:49:00,66.5,65.0,29.97,NW,307,0.0,0.0,95,0.00,,FEW120,0.00,VWS V14.01,2013-08-05 09:49:00,
2013-08-05 05:54:00,66.5,65.0,29.97,NW,307,0.0,0.0,95,0.00,,FEW120,0.00,VWS V14.01,2013-08-05 09:54:00,
2013-08-05 05:59:00,66.5,65.0,29.97,NW,307,0.0,0.0,95,0.00,,FEW120,0.00,VWS V14.01,2013-08-05 09:59:00,
2013-08-05 06:05:00,66.5,65.0,29.97,NW,307,0.0,0.0,95,0.00,,FEW120,0.00,VWS V14.01,2013-08-05 10:05:00,
2013-08-05 06:10:00,66.5,65.0,29.97,NW,307,0.0,0.0,95,0.00,,FEW120,0.00,VWS V14.01,2013-08-05 10:10:00,
2013-08-05 06:15:00,66.5,65.0,29.97,NW,307,0.0,0.0,95,0.00,,FEW120,0.00,VWS V14.01,2013-08-05 10:15:00,
2013-08-05 06:19:00,66.5,65.0,29.97,NW,307,0.0,0.0,95,0.00,,FEW120,0.00,VWS V14.01,2013-08-05 10:19:00,
2013-08-05 06:25:00,66.5,65.0,29.97,NW,307,0.0,0.0,95,0.00,,FEW120,0.00,VWS V14.01,2013-08-05 10:25:00,
2013-08-05 06:30:00,66.5,65.0,29.97,NW,307,0.0,0.0,95,0.00,,FEW120,0.00,VWS V14.01,2013-08-05 10:30:00,
2013-08-05 06:35:00,66.5,65.0,29.97,NW,307,0.0,0.0,95,0.00,,FEW120,0.00,VWS V14.01,2013-08-05 10:35:00,
2013-08-05 06:40:00,66.5,65.0,29.97,NW,307,0.0,0.0,95,0.00,,FEW120,0.00,VWS V14.01,2013-08-05 10:40:00,
2013-08-05 06:45:00,66.5,65.0,29.97,NW,307,0.0,0.0,95,0.00,,FEW120,0.00,VWS V14.01,2013-08-05 10:45:00,
2013-08-05 06:51:00,66.5,65.0,29.97,NW,307,0.0,0.0,95,0.00,,FEW120,0.00,VWS V14.01,2013-08-05 10:51:00,
2013-08-05 06:56:00,66.5,65.0,29.97,NW,307,0.0,0.0,95,0.00,,FEW120,0.00,VWS V14.01,2013-08-05 10:56:00,
2013-08-05 07:01:00,66.5,65.0,29.98,NW,307,0.0,0.0,95,0.00,,FEW120,0.00,VWS V14.01,2013-08-05 11:01:00,
2013-08-05 07:06:00,66.5,65.0,29.98,NW,307,0.0,0.0,95,0.00,,SCT120,0.00,VWS V14.01,2013-08-05 11:06:00,
2013-08-05 07:11:00,66.5,65.0,29.98,NW,307,0.0,0.0,95,0.00,,SCT120,0.00,VWS V14.01,2013-08-05 11:11:00,
2013-08-05 07:17:00,66.5,65.0,29.98,NW,307,0.0,0.0,95,0.00,,SCT120,0.00,VWS V14.01,2013-08-05 11:17:00,
2013-08-05 07:22:00,66.5,65.0,29.99,NW,307,0.0,0.0,95,0.00,,SCT120,0.00,VWS V14.01,2013-08-05 11:22:00,
2013-08-05 07:27:00,66.5,65.0,29.99,NW,307,0.0,0.0,95,0.00,,SCT120,0.00,VWS V14.01,2013-08-05 11:27:00,
2013-08-05 07:32:00,66.5,65.0,29.98,NW,307,0.0,0.0,95,0.00,,SCT120,0.00,VWS V14.01,2013-08-05 11:32:00,
2013-08-05 07:36:00,66.5,65.0,29.99,NW,307,0.0,0.0,95,0.00,,SCT120,0.00,VWS V14.01,2013-08-05 11:36:00,
2013-08-05 07:42:00,66.5,65.0,29.99,NW,307,0.0,0.0,95,0.00,,SCT120,0.00,VWS V14.01,2013-08-05 11:42:00,
2013-08-05 07:47:00,68.3,66.8,29.99,NW,306,0.0,0.0,95,0.00,,SCT120,0.00,VWS V14.01,2013-08-05 11:47:00,
2013-08-05 07:52:00,68.7,67.2,29.99,NW,307,0.0,0.0,95,0.00,,SCT120,0.00,VWS V14.01,2013-08-05 11:52:00,
2013-08-05 07:57:00,69.4,67.9,29.99,NW,306,0.0,0.0,95,0.00,,SCT120,0.00,VWS V14.01,2013-08-05 11:57:00,
2013-08-05 08:02:00,70.1,68.0,29.99,NW,306,0.0,0.0,93,0.00,,SCT120,0.00,VWS V14.01,2013-08-05 12:02:00,
2013-08-05 08:06:00,70.7,67.3,29.99,NW,306,0.0,0.0,89,0.00,,SCT120,0.00,VWS V14.01,2013-08-05 12:06:00,
2013-08-05 08:11:00,71.3,67.9,30.00,NW,307,0.0,0.0,89,0.00,,SCT120,0.00,VWS V14.01,2013-08-05 12:11:00,
2013-08-05 08:16:00,72.2,68.4,30.00,NW,307,0.0,0.0,88,0.00,,SCT120,0.00,VWS V14.01,2013-08-05 12:16:00,
2013-08-05 08:22:00,73.1,68.7,30.00,NW,306,0.0,0.0,86,0.00,,SCT120,0.00,VWS V14.01,2013-08-05 12:22:00,
2013-08-05 08:27:00,74.3,69.2,30.00,NW,306,0.0,0.0,84,0.00,,SCT120,0.00,VWS V14.01,2013-08-05 12:27:00,
2013-08-05 08:32:00,75.2,69.7,30.00,NW,306,0.0,0.0,83,0.00,,SCT120,0.00,VWS V14.01,2013-08-05 12:32:00,
2013-08-05 08:37:00,75.9,69.3,30.00,NW,315,0.0,0.0,80,0.00,,SCT120,0.00,VWS V14.01,2013-08-05 12:37:00,
2013-08-05 08:42:00,75.6,69.4,30.01,NW,315,0.0,0.0,81,0.00,,SCT120,0.00,VWS V14.01,2013-08-05 12:42:00,
2013-08-05 08:47:00,75.5,69.6,30.01,NW,314,0.0,0.0,82,0.00,,SCT120,0.00,VWS V14.01,2013-08-05 12:47:00,
2013-08-05 08:52:00,76.2,69.6,30.00,NW,315,0.0,0.0,80,0.00,,SCT120,0.00,VWS V14.01,2013-08-05 12:52:00,
2013-08-05 08:58:00,76.8,70.2,30.00,North,360,0.0,1.0,80,0.00,,SCT120,0.00,VWS V14.01,2013-08-05 12:58:00,
2013-08-05 09:03:00,76.5,69.9,30.00,North,1,0.0,0.0,80,0.00,,SCT120,0.00,VWS V14.01,2013-08-05 13:03:00,
2013-08-05 09:07:00,76.1,69.8,30.00,North,360,0.0,0.0,81,0.00,,SCT120,0.00,VWS V14.01,2013-08-05 13:07:00,
2013-08-05 09:13:00,76.2,70.3,30.00,North,357,0.0,0.0,82,0.00,,SCT120,0.00,VWS V14.01,2013-08-05 13:13:00,
2013-08-05 09:18:00,76.4,70.5,30.01,North,357,0.0,0.0,82,0.00,,SCT120,0.00,VWS V14.01,2013-08-05 13:18:00,
2013-08-05 09:23:00,76.4,70.1,30.01,NNW,345,0.0,0.0,81,0.00,,SCT120,0.00,VWS V14.01,2013-08-05 13:23:00,
2013-08-05 09:28:00,76.1,70.2,30.01,North,4,0.0,1.0,82,0.00,,SCT120,0.00,VWS V14.01,2013-08-05 13:28:00,
2013-08-05 09:33:00,75.9,70.4,30.01,North,359,0.0,0.0,83,0.00,,SCT120,0.00,VWS V14.01,2013-08-05 13:33:00,
2013-08-05 09:38:00,75.8,70.3,30.01,North,360,0.0,0.0,83,0.00,,SCT120,0.00,VWS V14.01,2013-08-05 13:38:00,
2013-08-05 09:44:00,76.1,70.6,30.01,NNW,342,0.0,1.0,83,0.00,,SCT120,0.00,VWS V14.01,2013-08-05 13:44:00,
2013-08-05 09:48:00,76.0,70.8,30.01,North,356,0.0,0.0,84,0.00,,SCT120,0.00,VWS V14.01,2013-08-05 13:48:00,
2013-08-05 09:54:00,76.0,70.8,30.01,North,7,1.0,2.0,84,0.00,,SCT120,0.00,VWS V14.01,2013-08-05 13:54:00,
2013-08-05 09:59:00,75.8,70.6,30.01,NNE,20,2.0,3.0,84,0.00,,SCT120,0.00,VWS V14.01,2013-08-05 13:59:00,
2013-08-05 10:03:00,75.7,70.5,30.01,NE,40,0.0,1.0,84,0.00,,SCT025,0.00,VWS V14.01,2013-08-05 14:03:00,
2013-08-05 10:09:00,75.8,70.6,30.01,WSW,256,0.0,3.0,84,0.00,,SCT025,0.00,VWS V14.01,2013-08-05 14:09:00,
2013-08-05 10:13:00,76.1,70.9,30.01,NE,46,0.0,3.0,84,0.00,,SCT025,0.00,VWS V14.01,2013-08-05 14:13:00,
2013-08-05 10:19:00,76.3,71.1,30.01,East,79,2.0,6.0,84,0.00,,SCT025,0.00,VWS V14.01,2013-08-05 14:19:00,
2013-08-05 10:24:00,76.4,71.2,30.01,NE,47,1.0,3.0,84,0.00,,SCT025,0.00,VWS V14.01,2013-08-05 14:24:00,
2013-08-05 10:29:00,76.6,71.4,30.02,NE,35,0.0,1.0,84,0.00,,SCT025,0.00,VWS V14.01,2013-08-05 14:29:00,
2013-08-05 10:34:00,76.7,71.2,30.02,NE,43,0.0,7.0,83,0.00,,SCT025,0.00,VWS V14.01,2013-08-05 14:34:00,
2013-08-05 10:38:00,76.8,71.6,30.02,NE,52,0.0,2.0,84,0.00,,SCT025,0.00,VWS V14.01,2013-08-05 14:38:00,
2013-08-05 10:44:00,77.3,71.7,30.02,NE,56,0.0,1.0,83,0.00,,SCT025,0.00,VWS V14.01,2013-08-05 14:44:00,
2013-08-05 10:50:00,77.8,71.5,30.02,ENE,64,3.0,3.0,81,0.00,,SCT025,0.00,VWS V14.01,2013-08-05 14:50:00,
2013-08-05 10:55:00,78.0,71.7,30.02,NE,52,2.0,5.0,81,0.00,,SCT025,0.00,VWS V14.01,2013-08-05 14:55:00,
2013-08-05 10:59:00,78.8,72.8,30.02,NE,39,0.0,2.0,82,0.00,,SCT025,0.00,VWS V14.01,2013-08-05 14:59:00,
2013-08-05 11:05:00,79.7,73.0,30.01,NE,49,0.0,3.0,80,0.00,,BKN030,0.00,VWS V14.01,2013-08-05 15:05:00,
2013-08-05 11:10:00,80.7,73.2,30.01,NNE,33,0.0,2.0,78,0.00,,BKN030,0.00,VWS V14.01,2013-08-05 15:10:00,
2013-08-05 11:15:00,81.4,73.9,30.01,NNE,20,0.0,2.0,78,0.00,,BKN030,0.00,VWS V14.01,2013-08-05 15:15:00,
2013-08-05 11:20:00,82.2,73.9,30.01,WNW,295,2.0,4.0,76,0.00,,BKN030,0.00,VWS V14.01,2013-08-05 15:20:00,
2013-08-05 11:24:00,81.7,73.4,30.01,NE,43,1.0,2.0,76,0.00,,BKN030,0.00,VWS V14.01,2013-08-05 15:24:00,
2013-08-05 11:29:00,82.1,74.6,30.01,East,84,3.0,5.0,78,0.00,,BKN030,0.00,VWS V14.01,2013-08-05 15:29:00,
2013-08-05 11:35:00,82.5,73.8,30.01,NE,56,1.0,5.0,75,0.00,,BKN030,0.00,VWS V14.01,2013-08-05 15:35:00,
2013-08-05 11:40:00,82.2,73.5,30.01,ENE,68,1.0,5.0,75,0.00,,BKN030,0.00,VWS V14.01,2013-08-05 15:40:00,
2013-08-05 11:45:00,82.6,73.9,30.01,ENE,57,2.0,6.0,75,0.00,,BKN030,0.00,VWS V14.01,2013-08-05 15:45:00,
2013-08-05 11:50:00,82.0,73.3,30.01,ENE,57,0.0,5.0,75,0.00,,BKN030,0.00,VWS V14.01,2013-08-05 15:50:00,
2013-08-05 11:55:00,82.7,74.4,30.00,ENE,58,1.0,2.0,76,0.00,,BKN030,0.00,VWS V14.01,2013-08-05 15:55:00,
2013-08-05 12:00:00,82.7,73.6,30.00,ENE,60,2.0,5.0,74,0.00,,BKN030,0.00,VWS V14.01,2013-08-05 16:00:00,
2013-08-05 12:05:00,82.8,73.3,30.00,NE,53,1.0,5.0,73,0.00,,BKN030,0.00,VWS V14.01,2013-08-05 16:05:00,
2013-08-05 12:10:00,82.3,73.2,30.00,WNW,288,0.0,3.0,74,0.00,,BKN030,0.00,VWS V14.01,2013-08-05 16:10:00,
2013-08-05 12:15:00,82.1,73.4,30.00,ENE,64,1.0,4.0,75,0.00,,BKN030,0.00,VWS V14.01,2013-08-05 16:15:00,
2013-08-05 12:20:00,82.0,73.7,30.00,South,174,2.0,2.0,76,0.00,,BKN030,0.00,VWS V14.01,2013-08-05 16:20:00,
2013-08-05 12:25:00,82.3,74.0,30.00,West,274,1.0,4.0,76,0.00,,BKN030,0.00,VWS V14.01,2013-08-05 16:25:00,
2013-08-05 12:31:00,82.9,73.8,30.00,SE,141,0.0,3.0,74,0.00,,BKN030,0.00,VWS V14.01,2013-08-05 16:31:00,
2013-08-05 12:36:00,84.2,74.2,30.00,NE,54,2.0,4.0,72,0.00,,BKN030,0.00,VWS V14.01,2013-08-05 16:36:00,
2013-08-05 12:41:00,85.2,74.7,30.00,NW,326,0.0,3.0,71,0.00,,BKN030,0.00,VWS V14.01,2013-08-05 16:41:00,
2013-08-05 12:46:00,85.7,74.4,30.00,East,91,2.0,6.0,69,0.00,,BKN030,0.00,VWS V14.01,2013-08-05 16:46:00,
2013-08-05 12:51:00,84.9,74.4,30.00,ENE,62,0.0,4.0,71,0.00,,BKN030,0.00,VWS V14.01,2013-08-05 16:51:00,
2013-08-05 12:57:00,85.6,74.7,29.99,SW,235,0.0,0.0,70,0.00,,BKN030,0.00,VWS V14.01,2013-08-05 16:57:00,
2013-08-05 13:02:00,85.9,73.7,29.99,NNE,12,2.0,7.0,67,0.00,,BKN030,0.00,VWS V14.01,2013-08-05 17:02:00,
2013-08-05 13:06:00,85.4,74.9,29.99,SW,236,0.0,2.0,71,0.00,,BKN030,0.00,VWS V14.01,2013-08-05 17:06:00,
2013-08-05 13:11:00,86.5,75.6,29.99,WNW,284,0.0,1.0,70,0.00,,BKN030,0.00,VWS V14.01,2013-08-05 17:11:00,
2013-08-05 13:17:00,86.9,73.3,29.99,ENE,76,4.0,4.0,64,0.00,,BKN030,0.00,VWS V14.01,2013-08-05 17:17:00,
2013-08-05 13:22:00,85.9,74.1,29.99,ENE,70,0.0,0.0,68,0.00,,BKN030,0.00,VWS V14.01,2013-08-05 17:22:00,
2013-08-05 13:27:00,86.5,74.7,29.99,ENE,57,0.0,0.0,68,0.00,,BKN030,0.00,VWS V14.01,2013-08-05 17:27:00,
2013-08-05 13:32:00,87.8,75.5,29.99,ENE,72,4.0,4.0,67,0.00,,BKN030,0.00,VWS V14.01,2013-08-05 17:32:00,
2013-08-05 13:37:00,87.5,73.8,29.98,North,356,0.0,1.0,64,0.00,,BKN030,0.00,VWS V14.01,2013-08-05 17:37:00,
2013-08-05 13:42:00,87.2,73.6,29.98,WSW,248,2.0,3.0,64,0.00,,BKN030,0.00,VWS V14.01,2013-08-05 17:42:00,
2013-08-05 13:47:00,87.5,75.6,29.98,SW,221,1.0,1.0,68,0.00,,BKN030,0.00,VWS V14.01,2013-08-05 17:47:00,
2013-08-05 13:52:00,88.6,74.9,29.98,NE,53,0.0,0.0,64,0.00,,BKN030,0.00,VWS V14.01,2013-08-05 17:52:00,
2013-08-05 13:57:00,89.6,73.4,29.98,SW,234,1.0,3.0,59,0.00,,BKN030,0.00,VWS V14.01,2013-08-05 17:57:00,
2013-08-05 14:02:00,89.1,72.4,29.98,WSW,246,1.0,1.0,58,0.00,,BKN030,0.00,VWS V14.01,2013-08-05 18:02:00,
2013-08-05 14:07:00,89.0,73.8,29.98,SW,235,0.0,0.0,61,0.00,,BKN050,0.00,VWS V14.01,2013-08-05 18:07:00,
2013-08-05 14:12:00,88.6,72.4,29.98,West,271,0.0,1.0,59,0.00,,BKN050,0.00,VWS V14.01,2013-08-05 18:12:00,
2013-08-05 14:17:00,88.2,72.6,29.98,WSW,249,0.0,1.0,60,0.00,,BKN050,0.00,VWS V14.01,2013-08-05 18:17:00,
2013-08-05 14:22:00,88.1,73.9,29.98,WSW,248,0.0,0.0,63,0.00,,BKN050,0.00,VWS V14.01,2013-08-05 18:22:00,
2013-08-05 14:27:00,89.0,75.2,29.98,ENE,63,0.0,1.0,64,0.00,,BKN050,0.00,VWS V14.01,2013-08-05 18:27:00,
2013-08-05 14:32:00,89.5,73.8,29.98,NNE,29,0.0,1.0,60,0.00,,BKN050,0.00,VWS V14.01,2013-08-05 18:32:00,
2013-08-05 14:37:00,89.2,71.5,29.97,NNW,337,1.0,2.0,56,0.00,,BKN050,0.00,VWS V14.01,2013-08-05 18:37:00,
2013-08-05 14:42:00,88.2,71.6,29.97,NNE,17,0.0,0.0,58,0.00,,BKN050,0.00,VWS V14.01,2013-08-05 18:42:00,
2013-08-05 14:47:00,88.1,73.9,29.97,NNE,16,0.0,0.0,63,0.00,,BKN050,0.00,VWS V14.01,2013-08-05 18:47:00,
2013-08-05 14:52:00,88.3,73.2,29.97,NNE,14,0.0,0.0,61,0.00,,BKN050,0.00,VWS V14.01,2013-08-05 18:52:00,
2013-08-05 14:57:00,87.8,71.2,29.97,ENE,65,2.0,2.0,58,0.00,,BKN050,0.00,VWS V14.01,2013-08-05 18:57:00,
2013-08-05 15:02:00,87.2,73.6,29.97,NNE,29,0.0,0.0,64,0.00,,BKN130,0.00,VWS V14.01,2013-08-05 19:02:00,
2013-08-05 15:07:00,87.8,73.2,29.96,WSW,239,0.0,1.0,62,0.00,,BKN130,0.00,VWS V14.01,2013-08-05 19:07:00,
2013-08-05 15:13:00,88.4,73.2,29.96,NE,49,0.0,2.0,61,0.00,,BKN130,0.00,VWS V14.01,2013-08-05 19:13:00,
2013-08-05 15:18:00,89.0,70.8,29.96,NE,54,0.0,1.0,55,0.00,,BKN130,0.00,VWS V14.01,2013-08-05 19:18:00,
2013-08-05 15:23:00,89.2,70.9,29.96,NE,46,0.0,1.0,55,0.00,,BKN130,0.00,VWS V14.01,2013-08-05 19:23:00,
2013-08-05 15:28:00,89.8,72.6,29.96,NNW,329,0.0,0.0,57,0.00,,BKN130,0.00,VWS V14.01,2013-08-05 19:28:00,
2013-08-05 15:33:00,90.4,73.1,29.96,WNW,282,0.0,1.0,57,0.00,,BKN130,0.00,VWS V14.01,2013-08-05 19:33:00,
2013-08-05 15:38:00,90.2,72.4,29.96,WNW,282,0.0,1.0,56,0.00,,BKN130,0.00,VWS V14.01,2013-08-05 19:38:00,
2013-08-05 15:43:00,90.1,72.8,29.95,WSW,257,0.0,0.0,57,0.00,,BKN130,0.00,VWS V14.01,2013-08-05 19:43:00,
2013-08-05 15:49:00,90.5,74.2,29.95,West,259,0.0,0.0,59,0.00,,BKN130,0.00,VWS V14.01,2013-08-05 19:49:00,
2013-08-05 15:54:00,90.6,73.3,29.95,WNW,297,0.0,0.0,57,0.00,,BKN130,0.00,VWS V14.01,2013-08-05 19:54:00,
2013-08-05 15:59:00,90.0,72.7,29.95,WNW,297,0.0,0.0,57,0.00,,BKN130,0.00,VWS V14.01,2013-08-05 19:59:00,
2013-08-05 16:04:00,89.6,73.9,29.95,North,356,0.0,1.0,60,0.00,,SCT050,0.00,VWS V14.01,2013-08-05 20:04:00,
2013-08-05 16:09:00,89.4,74.2,29.95,NNE,33,0.0,1.0,61,0.00,,SCT050,0.00,VWS V14.01,2013-08-05 20:09:00,
2013-08-05 16:14:00,89.6,71.8,29.95,NNE,33,0.0,0.0,56,0.00,,SCT050,0.00,VWS V14.01,2013-08-05 20:14:00,
2013-08-05 16:19:00,89.0,72.3,29.95,NNE,28,0.0,0.0,58,0.00,,SCT050,0.00,VWS V14.01,2013-08-05 20:19:00,
2013-08-05 16:24:00,88.7,75.0,29.94,NNE,29,0.0,0.0,64,0.00,,SCT050,0.00,VWS V14.01,2013-08-05 20:24:00,
2013-08-05 16:30:00,88.3,72.2,29.94,NNE,29,0.0,1.0,59,0.00,,SCT050,0.00,VWS V14.01,2013-08-05 20:30:00,
2013-08-05 16:35:00,88.5,73.3,29.94,NNE,29,0.0,0.0,61,0.00,,SCT050,0.00,VWS V14.01,2013-08-05 20:35:00,
2013-08-05 16:40:00,88.8,73.1,29.94,NNE,31,1.0,1.0,60,0.00,,SCT050,0.00,VWS V14.01,2013-08-05 20:40:00,
2013-08-05 16:45:00,89.1,71.9,29.94,NNE,28,0.0,1.0,57,0.00,,SCT050,0.00,VWS V14.01,2013-08-05 20:45:00,
2013-08-05 16:50:00,89.3,73.6,29.94,WNW,284,0.0,1.0,60,0.00,,SCT050,0.00,VWS V14.01,2013-08-05 20:50:00,
2013-08-05 16:55:00,89.1,72.9,29.94,NNE,29,1.0,2.0,59,0.00,,SCT050,0.00,VWS V14.01,2013-08-05 20:55:00,
2013-08-05 17:00:00,88.6,72.9,29.94,NNE,23,0.0,1.0,60,0.00,,SCT050,0.00,VWS V14.01,2013-08-05 21:00:00,
2013-08-05 17:05:00,88.9,72.7,29.94,NNE,15,0.0,1.0,59,0.00,,BKN150,0.00,VWS V14.01,2013-08-05 21:05:00,
2013-08-05 17:10:00,89.2,72.5,29.94,NNE,17,0.0,1.0,58,0.00,,BKN150,0.00,VWS V14.01,2013-08-05 21:10:00,
2013-08-05 17:16:00,89.0,70.8,29.94,NNE,18,0.0,1.0,55,0.00,,BKN150,0.00,VWS V14.01,2013-08-05 21:16:00,
2013-08-05 17:21:00,88.7,70.5,29.94,NNE,13,0.0,0.0,55,0.00,,BKN150,0.00,VWS V14.01,2013-08-05 21:21:00,
2013-08-05 17:26:00,88.1,71.5,29.94,NNE,19,0.0,1.0,58,0.00,,BKN150,0.00,VWS V14.01,2013-08-05 21:26:00,
2013-08-05 17:31:00,87.5,71.4,29.94,NNE,18,0.0,0.0,59,0.00,,BKN150,0.00,VWS V14.01,2013-08-05 21:31:00,
2013-08-05 17:36:00,87.5,72.9,29.94,NNE,23,1.0,1.0,62,0.00,,BKN150,0.00,VWS V14.01,2013-08-05 21:36:00,
2013-08-05 17:41:00,87.4,73.7,29.94,NNE,20,0.0,0.0,64,0.00,,BKN150,0.00,VWS V14.01,2013-08-05 21:41:00,
2013-08-05 17:46:00,86.9,71.3,29.94,NNE,20,0.0,0.0,60,0.00,,BKN150,0.00,VWS V14.01,2013-08-05 21:46:00,
2013-08-05 17:52:00,86.4,71.8,29.94,NNE,22,0.0,1.0,62,0.00,,BKN150,0.00,VWS V14.01,2013-08-05 21:52:00,
2013-08-05 17:57:00,86.0,71.5,29.94,NNE,22,0.0,0.0,62,0.00,,BKN150,0.00,VWS V14.01,2013-08-05 21:57:00,
2013-08-05 18:02:00,86.0,73.3,29.94,NNE,20,0.0,0.0,66,0.00,,BKN150,0.00,VWS V14.01,2013-08-05 22:02:00,
2013-08-05 18:07:00,86.5,71.9,29.94,NNW,345,1.0,1.0,62,0.00,,BKN150,0.00,VWS V14.01,2013-08-05 22:07:00,
2013-08-05 18:12:00,86.8,72.2,29.93,NNE,30,0.0,0.0,62,0.00,,SCT110,0.00,VWS V14.01,2013-08-05 22:12:00,
2013-08-05 18:17:00,87.4,72.3,29.93,NE,37,0.0,1.0,61,0.00,,SCT110,0.00,VWS V14.01,2013-08-05 22:17:00,
2013-08-05 18:22:00,87.6,72.5,29.94,NE,37,1.0,1.0,61,0.00,,SCT110,0.00,VWS V14.01,2013-08-05 22:22:00,
2013-08-05 18:27:00,86.9,72.3,29.94,NNE,23,0.0,0.0,62,0.00,,SCT110,0.00,VWS V14.01,2013-08-05 22:27:00,
2013-08-05 18:32:00,86.6,72.0,29.94,WNW,284,0.0,0.0,62,0.00,,SCT110,0.00,VWS V14.01,2013-08-05 22:32:00,
2013-08-05 18:37:00,86.3,71.8,29.94,West,271,0.0,0.0,62,0.00,,SCT110,0.00,VWS V14.01,2013-08-05 22:37:00,
2013-08-05 18:42:00,86.3,72.2,29.94,West,271,0.0,0.0,63,0.00,,SCT110,0.00,VWS V14.01,2013-08-05 22:42:00,
2013-08-05 18:47:00,86.0,72.4,29.94,West,271,0.0,0.0,64,0.00,,SCT110,0.00,VWS V14.01,2013-08-05 22:47:00,
2013-08-05 18:52:00,85.5,71.9,29.94,West,271,0.0,0.0,64,0.00,,SCT110,0.00,VWS V14.01,2013-08-05 22:52:00,
2013-08-05 18:58:00,85.2,73.0,29.94,West,271,0.0,0.0,67,0.00,,SCT110,0.00,VWS V14.01,2013-08-05 22:58:00,
2013-08-05 19:03:00,85.0,72.8,29.94,West,271,0.0,0.0,67,0.00,,SCT120,0.00,VWS V14.01,2013-08-05 23:03:00,
2013-08-05 19:08:00,84.4,72.2,29.93,West,273,0.0,0.0,67,0.00,,SCT120,0.00,VWS V14.01,2013-08-05 23:08:00,
2013-08-05 19:13:00,83.5,70.5,29.93,WNW,288,0.0,1.0,65,0.00,,SCT120,0.00,VWS V14.01,2013-08-05 23:13:00,
2013-08-05 19:18:00,82.7,69.8,29.93,WNW,290,0.0,0.0,65,0.00,,SCT120,0.00,VWS V14.01,2013-08-05 23:18:00,
2013-08-05 19:23:00,82.1,69.2,29.93,WNW,284,0.0,0.0,65,0.00,,SCT120,0.00,VWS V14.01,2013-08-05 23:23:00,
2013-08-05 19:28:00,81.8,68.4,29.93,WNW,284,0.0,0.0,64,0.00,,SCT120,0.00,VWS V14.01,2013-08-05 23:28:00,
2013-08-05 19:33:00,81.5,68.6,29.94,WNW,284,0.0,0.0,65,0.00,,SCT120,0.00,VWS V14.01,2013-08-05 23:33:00,
2013-08-05 19:38:00,81.2,67.9,29.94,WNW,284,0.0,0.0,64,0.00,,SCT120,0.00,VWS V14.01,2013-08-05 23:38:00,
2013-08-05 19:43:00,81.0,68.1,29.94,WNW,284,0.0,0.0,65,0.00,,SCT120,0.00,VWS V14.01,2013-08-05 23:43:00,
2013-08-05 19:48:00,80.8,68.4,29.94,WNW,284,0.0,0.0,66,0.00,,SCT120,0.00,VWS V14.01,2013-08-05 23:48:00,
2013-08-05 19:53:00,80.5,68.5,29.94,WNW,284,0.0,0.0,67,0.00,,SCT120,0.00,VWS V14.01,2013-08-05 23:53:00,
2013-08-05 19:58:00,80.2,67.8,29.95,WNW,283,0.0,0.0,66,0.00,,SCT120,0.00,VWS V14.01,2013-08-05 23:58:00,
2013-08-05 20:04:00,79.8,67.9,29.95,NW,316,0.0,2.0,67,0.00,,SCT110,0.00,VWS V14.01,2013-08-06 00:04:00,
2013-08-05 20:09:00,79.5,68.4,29.95,NW,316,0.0,0.0,69,0.00,,SCT110,0.00,VWS V14.01,2013-08-06 00:09:00,
2013-08-05 20:14:00,79.2,68.2,29.96,NW,316,0.0,0.0,69,0.00,,SCT110,0.00,VWS V14.01,2013-08-06 00:14:00,
2013-08-05 20:19:00,79.0,68.8,29.96,NW,316,0.0,0.0,71,0.00,,SCT110,0.00,VWS V14.01,2013-08-06 00:19:00,
2013-08-05 20:24:00,78.7,68.9,29.96,NW,316,0.0,0.0,72,0.00,,SCT110,0.00,VWS V14.01,2013-08-06 00:24:00,
2013-08-05 20:29:00,78.4,69.0,29.96,NW,316,0.0,0.0,73,0.00,,SCT110,0.00,VWS V14.01,2013-08-06 00:29:00,
2013-08-05 20:34:00,77.9,68.9,29.96,NW,316,0.0,0.0,74,0.00,,SCT110,0.00,VWS V14.01,2013-08-06 00:34:00,
2013-08-05 20:39:00,77.6,69.1,29.96,NW,316,0.0,0.0,75,0.00,,SCT110,0.00,VWS V14.01,2013-08-06 00:39:00,
2013-08-05 20:44:00,77.2,69.1,29.96,NW,316,0.0,0.0,76,0.00,,SCT110,0.00,VWS V14.01,2013-08-06 00:44:00,
2013-08-05 20:50:00,76.9,68.8,29.96,NW,316,0.0,0.0,76,0.00,,SCT110,0.00,VWS V14.01,2013-08-06 00:50:00,
2013-08-05 20:55:00,76.6,68.9,29.96,NW,316,0.0,0.0,77,0.00,,SCT110,0.00,VWS V14.01,2013-08-06 00:55:00,
2013-08-05 21:00:00,76.3,69.3,29.96,NW,316,0.0,0.0,79,0.00,,SCT110,0.00,VWS V14.01,2013-08-06 01:00:00,
2013-08-05 21:05:00,76.0,69.0,29.96,NW,316,0.0,0.0,79,0.00,,BKN100,0.00,VWS V14.01,2013-08-06 01:05:00,
2013-08-05 21:10:00,75.7,69.1,29.96,NW,316,0.0,0.0,80,0.00,,BKN100,0.00,VWS V14.01,2013-08-06 01:10:00,
2013-08-05 21:16:00,75.6,69.4,29.96,NW,316,0.0,0.0,81,0.00,,BKN100,0.00,VWS V14.01,2013-08-06 01:16:00,
2013-08-05 21:21:00,75.4,69.2,29.96,NW,316,0.0,0.0,81,0.00,,BKN100,0.00,VWS V14.01,2013-08-06 01:21:00,
2013-08-05 21:26:00,75.3,69.1,29.96,NW,316,0.0,0.0,81,0.00,,BKN100,0.00,VWS V14.01,2013-08-06 01:26:00,
2013-08-05 21:31:00,75.3,69.1,29.96,NW,316,0.0,0.0,81,0.00,,BKN100,0.00,VWS V14.01,2013-08-06 01:31:00,
2013-08-05 21:36:00,75.2,69.0,29.96,NW,316,0.0,0.0,81,0.00,,BKN100,0.00,VWS V14.01,2013-08-06 01:36:00,
2013-08-05 21:41:00,75.1,68.5,29.95,NW,316,0.0,0.0,80,0.00,,BKN100,0.00,VWS V14.01,2013-08-06 01:41:00,
2013-08-05 21:46:00,75.0,68.8,29.95,NW,316,0.0,0.0,81,0.00,,BKN100,0.00,VWS V14.01,2013-08-06 01:46:00,
2013-08-05 21:51:00,74.8,68.9,29.95,NW,316,0.0,0.0,82,0.00,,BKN100,0.00,VWS V14.01,2013-08-06 01:51:00,
2013-08-05 21:56:00,74.5,69.0,29.95,NW,316,0.0,0.0,83,0.00,,BKN100,0.00,VWS V14.01,2013-08-06 01:56:00,
2013-08-05 22:01:00,74.2,68.7,29.95,NW,316,0.0,0.0,83,0.00,,SCT110,0.00,VWS V14.01,2013-08-06 02:01:00,
2013-08-05 22:06:00,73.9,68.8,29.95,NW,316,0.0,0.0,84,0.00,,SCT110,0.00,VWS V14.01,2013-08-06 02:06:00,
2013-08-05 22:11:00,73.6,68.8,29.95,NW,316,0.0,0.0,85,0.00,,SCT110,0.00,VWS V14.01,2013-08-06 02:11:00,
2013-08-05 22:16:00,73.4,69.0,29.95,NW,316,0.0,0.0,86,0.00,,SCT110,0.00,VWS V14.01,2013-08-06 02:16:00,
2013-08-05 22:21:00,73.3,68.9,29.95,NW,316,0.0,0.0,86,0.00,,SCT110,0.00,VWS V14.01,2013-08-06 02:21:00,
2013-08-05 22:26:00,73.1,69.0,29.95,NW,316,0.0,0.0,87,0.00,,SCT110,0.00,VWS V14.01,2013-08-06 02:26:00,
2013-08-05 22:31:00,73.0,68.9,29.95,NW,316,0.0,0.0,87,0.00,,SCT110,0.00,VWS V14.01,2013-08-06 02:31:00,
2013-08-05 22:37:00,72.8,68.7,29.95,NW,316,0.0,0.0,87,0.00,,SCT110,0.00,VWS V14.01,2013-08-06 02:37:00,
2013-08-05 22:42:00,72.7,68.6,29.95,NW,316,0.0,0.0,87,0.00,,SCT110,0.00,VWS V14.01,2013-08-06 02:42:00,
2013-08-05 22:47:00,72.5,68.8,29.95,NW,316,0.0,0.0,88,0.00,,SCT110,0.00,VWS V14.01,2013-08-06 02:47:00,
2013-08-05 22:52:00,72.3,68.9,29.95,NW,316,0.0,0.0,89,0.00,,SCT110,0.00,VWS V14.01,2013-08-06 02:52:00,
2013-08-05 22:57:00,72.1,68.7,29.96,NW,316,0.0,0.0,89,0.00,,SCT110,0.00,VWS V14.01,2013-08-06 02:57:00,
2013-08-05 23:02:00,72.0,68.9,29.96,NW,316,0.0,0.0,90,0.00,,SCT110,0.00,VWS V14.01,2013-08-06 03:02:00,
2013-08-05 23:07:00,71.8,68.7,29.96,NW,316,0.0,0.0,90,0.00,,SCT110,0.00,VWS V14.01,2013-08-06 03:07:00,
2013-08-05 23:12:00,71.7,68.9,29.96,NW,316,0.0,0.0,91,0.00,,SCT110,0.00,VWS V14.01,2013-08-06 03:12:00,
2013-08-05 23:17:00,71.6,68.8,29.96,NW,316,0.0,0.0,91,0.00,,SCT110,0.00,VWS V14.01,2013-08-06 03:17:00,
2013-08-05 23:22:00,71.4,68.6,29.96,NW,316,0.0,0.0,91,0.00,,SCT110,0.00,VWS V14.01,2013-08-06 03:22:00,
2013-08-05 23:27:00,71.3,68.5,29.96,NW,316,0.0,0.0,91,0.00,,SCT110,0.00,VWS V14.01,2013-08-06 03:27:00,
2013-08-05 23:32:00,71.2,68.8,29.96,NW,316,0.0,0.0,92,0.00,,SCT110,0.00,VWS V14.01,2013-08-06 03:32:00,
2013-08-05 23:37:00,71.1,68.7,29.96,NW,316,0.0,0.0,92,0.00,,SCT110,0.00,VWS V14.01,2013-08-06 03:37:00,
2013-08-05 23:42:00,71.0,68.6,29.96,NW,316,0.0,0.0,92,0.00,,SCT110,0.00,VWS V14.01,2013-08-06 03:42:00,
2013-08-05 23:47:00,71.0,68.9,29.96,NW,316,0.0,0.0,93,0.00,,SCT110,0.00,VWS V14.01,2013-08-06 03:47:00,
2013-08-05 23:52:00,70.9,68.8,29.96,NW,316,0.0,0.0,93,0.00,,SCT110,0.00,VWS V14.01,2013-08-06 03:52:00,
2013-08-05 23:57:00,71.0,68.9,29.96,NW,316,0.0,0.0,93,0.00,,SCT110,0.00,VWS V14.01,2013-08-06 03:57:00,